createdAt,value
2022-12-03T00:01:20.150Z,14.27
2022-12-03T00:03:47.607Z,14.13
2022-12-03T00:06:15.196Z,14.55
2022-12-03T00:08:42.310Z,16.08
2022-12-03T00:11:09.983Z,14.88
2022-12-03T00:13:37.412Z,14.27
2022-12-03T00:16:05.097Z,15.00
2022-12-03T00:18:32.519Z,14.98
2022-12-03T00:20:59.805Z,14.23
2022-12-03T00:23:26.999Z,14.32
2022-12-03T00:25:54.310Z,18.40
2022-12-03T00:28:21.682Z,16.00
2022-12-03T00:30:49.657Z,16.05
2022-12-03T00:33:16.935Z,16.17
2022-12-03T00:35:44.200Z,15.73
2022-12-03T00:38:11.627Z,16.17
2022-12-03T00:40:38.943Z,15.70
2022-12-03T00:43:06.517Z,15.88
2022-12-03T00:45:33.928Z,16.13
2022-12-03T00:48:01.201Z,14.50
2022-12-03T00:50:28.768Z,17.55
2022-12-03T00:52:56.095Z,15.95
2022-12-03T00:55:24.982Z,14.15
2022-12-03T00:57:52.286Z,16.05
2022-12-03T01:00:24.842Z,15.63
2022-12-03T01:02:53.345Z,14.10
2022-12-03T01:05:21.066Z,14.80
2022-12-03T01:07:48.574Z,12.93
2022-12-03T01:10:16.001Z,14.55
2022-12-03T01:12:43.500Z,12.38
2022-12-03T01:15:11.243Z,19.48
2022-12-03T01:17:39.088Z,16.42
2022-12-03T01:20:09.347Z,13.38
2022-12-03T01:22:37.234Z,16.13
2022-12-03T01:25:04.917Z,13.30
2022-12-03T01:27:32.788Z,15.20
2022-12-03T01:30:00.012Z,14.43
2022-12-03T01:32:27.334Z,17.00
2022-12-03T01:34:56.482Z,15.13
2022-12-03T01:37:26.276Z,16.23
2022-12-03T01:39:54.080Z,15.52
2022-12-03T01:42:36.409Z,14.63
2022-12-03T01:45:04.405Z,14.55
2022-12-03T01:47:36.823Z,13.57
2022-12-03T01:50:23.589Z,16.65
2022-12-03T01:52:51.375Z,14.60
2022-12-03T01:55:22.095Z,14.80
2022-12-03T01:57:53.109Z,14.23
2022-12-03T02:00:23.343Z,15.35
2022-12-03T02:02:57.596Z,16.42
2022-12-03T02:05:35.662Z,14.60
2022-12-03T02:08:03.079Z,19.38
2022-12-03T02:10:36.420Z,16.02
2022-12-03T02:13:08.086Z,16.38
2022-12-03T02:15:37.162Z,13.13
2022-12-03T02:18:04.685Z,15.80
2022-12-03T02:20:36.186Z,15.35
2022-12-03T02:23:09.505Z,15.70
2022-12-03T02:25:38.296Z,13.95
2022-12-03T02:28:08.587Z,15.50
2022-12-03T02:30:36.761Z,15.05
2022-12-03T02:33:04.547Z,17.10
2022-12-03T02:35:36.935Z,15.98
2022-12-03T02:38:19.306Z,16.43
2022-12-03T02:40:49.443Z,16.48
2022-12-03T02:43:18.615Z,17.48
2022-12-03T02:45:49.907Z,16.65
2022-12-03T02:48:20.815Z,15.68
2022-12-03T02:50:54.236Z,17.70
2022-12-03T02:55:52.378Z,18.08
2022-12-03T02:58:20.956Z,16.30
2022-12-03T03:00:49.609Z,17.52
2022-12-03T03:03:19.261Z,17.58
2022-12-03T03:05:48.322Z,18.15
2022-12-03T03:08:17.197Z,17.70
2022-12-03T03:10:46.697Z,20.05
2022-12-03T03:13:18.642Z,18.52
2022-12-03T03:15:46.436Z,19.42
2022-12-03T03:18:15.579Z,18.00
2022-12-03T03:20:44.570Z,19.35
2022-12-03T03:23:18.065Z,20.50
2022-12-03T03:28:19.188Z,20.23
2022-12-03T03:30:47.558Z,21.50
2022-12-03T03:33:16.382Z,18.92
2022-12-03T03:35:45.626Z,19.65
2022-12-03T03:38:13.400Z,20.35
2022-12-03T03:40:41.612Z,21.08
2022-12-03T03:43:09.065Z,21.67
2022-12-03T03:45:36.858Z,21.10
2022-12-03T03:48:04.659Z,22.13
2022-12-03T03:50:32.801Z,20.45
2022-12-03T03:53:02.173Z,20.75
2022-12-03T03:55:30.549Z,21.45
2022-12-03T03:57:57.866Z,23.15
2022-12-03T04:00:26.196Z,22.70
2022-12-03T04:02:54.998Z,19.92
2022-12-03T04:05:24.356Z,21.25
2022-12-03T04:07:52.013Z,18.88
2022-12-03T04:10:38.485Z,21.27
2022-12-03T04:13:06.309Z,19.88
2022-12-03T04:15:33.539Z,20.63
2022-12-03T04:18:19.696Z,20.52
2022-12-03T04:20:47.115Z,21.52
2022-12-03T04:23:14.393Z,19.63
2022-12-03T04:26:00.032Z,20.27
2022-12-03T04:28:45.837Z,20.20
2022-12-03T04:31:31.973Z,19.58
2022-12-03T04:34:17.859Z,17.58
2022-12-03T04:36:45.245Z,22.58
2022-12-03T04:39:12.547Z,18.73
2022-12-03T04:41:40.211Z,22.25
2022-12-03T04:44:26.173Z,18.60
2022-12-03T04:46:53.897Z,21.92
2022-12-03T04:49:22.301Z,21.15
2022-12-03T04:51:49.628Z,18.25
2022-12-03T04:54:16.796Z,21.83
2022-12-03T04:56:44.394Z,22.70
2022-12-03T04:59:15.965Z,23.85
2022-12-03T05:01:44.705Z,22.25
2022-12-03T05:04:13.713Z,24.10
2022-12-03T05:06:41.877Z,21.70
2022-12-03T05:09:09.766Z,21.50
2022-12-03T05:11:37.154Z,20.85
2022-12-03T05:14:04.732Z,21.50
2022-12-03T05:16:32.177Z,20.80
2022-12-03T05:18:59.758Z,22.27
2022-12-03T05:21:27.162Z,21.58
2022-12-03T05:23:54.844Z,19.02
2022-12-03T05:26:22.847Z,22.10
2022-12-03T05:28:50.284Z,23.15
2022-12-03T05:31:18.236Z,22.05
2022-12-03T05:33:45.537Z,21.40
2022-12-03T05:36:12.763Z,25.75
2022-12-03T05:38:40.059Z,25.20
2022-12-03T05:41:27.531Z,26.63
2022-12-03T05:43:54.969Z,24.08
2022-12-03T05:46:22.798Z,24.40
2022-12-03T05:48:50.108Z,24.25
2022-12-03T05:51:17.425Z,26.23
2022-12-03T05:53:44.644Z,29.30
2022-12-03T05:56:11.942Z,26.67
2022-12-03T05:58:39.487Z,25.10
2022-12-03T06:01:07.314Z,26.33
2022-12-03T06:03:34.884Z,28.88
2022-12-03T06:06:02.413Z,26.85
2022-12-03T06:08:29.800Z,30.92
2022-12-03T06:10:57.621Z,26.02
2022-12-03T06:13:26.113Z,30.83
2022-12-03T06:15:53.392Z,26.52
2022-12-03T06:18:20.693Z,27.73
2022-12-03T06:20:47.943Z,27.55
2022-12-03T06:23:15.363Z,30.40
2022-12-03T06:25:42.784Z,27.00
2022-12-03T06:28:10.182Z,28.98
2022-12-03T06:30:37.575Z,27.20
2022-12-03T06:33:05.266Z,28.73
2022-12-03T06:35:32.466Z,29.00
2022-12-03T06:37:59.844Z,34.70
2022-12-03T06:40:27.359Z,27.52
2022-12-03T06:42:54.701Z,31.58
2022-12-03T06:45:22.103Z,29.05
2022-12-03T06:47:49.394Z,30.23
2022-12-03T06:50:16.706Z,33.75
2022-12-03T06:52:44.161Z,25.08
2022-12-03T06:55:11.477Z,27.17
2022-12-03T06:57:38.952Z,27.20
2022-12-03T07:00:08.711Z,28.75
2022-12-03T07:02:36.843Z,29.23
2022-12-03T07:05:05.313Z,27.08
2022-12-03T07:07:32.736Z,29.23
2022-12-03T07:10:00.118Z,28.50
2022-12-03T07:12:27.557Z,28.75
2022-12-03T07:14:55.082Z,28.77
2022-12-03T07:17:23.153Z,23.95
2022-12-03T07:19:50.726Z,27.75
2022-12-03T07:22:18.107Z,25.65
2022-12-03T07:24:45.594Z,30.33
2022-12-03T07:27:13.374Z,26.58
2022-12-03T07:29:40.850Z,27.77
2022-12-03T07:32:13.974Z,27.48
2022-12-03T07:34:48.574Z,29.20
2022-12-03T07:37:26.380Z,28.83
2022-12-03T07:39:54.958Z,23.10
2022-12-03T07:42:22.176Z,27.88
2022-12-03T07:44:49.724Z,25.60
2022-12-03T07:47:17.656Z,24.75
2022-12-03T07:49:45.031Z,30.40
2022-12-03T07:52:12.330Z,29.95
2022-12-03T07:54:40.152Z,27.60
2022-12-03T07:57:07.594Z,28.75
2022-12-03T07:59:35.317Z,25.20
2022-12-03T08:02:03.218Z,26.13
2022-12-03T08:04:30.792Z,27.08
2022-12-03T08:06:58.160Z,24.10
2022-12-03T08:09:25.496Z,26.13
2022-12-03T08:11:52.900Z,25.55
2022-12-03T08:14:21.461Z,27.98
2022-12-03T08:16:49.558Z,26.38
2022-12-03T08:19:18.741Z,22.75
2022-12-03T08:21:46.252Z,22.52
2022-12-03T08:24:16.908Z,24.45
2022-12-03T08:26:45.585Z,22.88
2022-12-03T08:29:16.090Z,23.92
2022-12-03T08:31:54.223Z,21.98
2022-12-03T08:34:24.519Z,22.85
2022-12-03T08:36:56.862Z,21.02
2022-12-03T08:39:34.747Z,23.25
2022-12-03T08:42:23.565Z,23.23
2022-12-03T08:44:51.058Z,23.42
2022-12-03T08:47:25.122Z,24.60
2022-12-03T08:50:00.257Z,23.27
2022-12-03T08:52:32.946Z,22.50
2022-12-03T08:55:11.282Z,25.45
2022-12-03T08:57:41.995Z,26.02
2022-12-03T09:00:13.540Z,24.15
2022-12-03T09:02:46.576Z,23.17
2022-12-03T09:05:17.698Z,21.35
2022-12-03T09:07:45.206Z,23.88
2022-12-03T09:10:12.997Z,24.55
2022-12-03T09:12:40.474Z,22.02
2022-12-03T09:15:08.864Z,21.88
2022-12-03T09:17:36.206Z,22.45
2022-12-03T09:20:05.904Z,22.80
2022-12-03T09:22:33.129Z,21.08
2022-12-03T09:25:01.754Z,23.27
2022-12-03T09:27:29.474Z,22.48
2022-12-03T09:29:56.791Z,19.90
2022-12-03T09:32:24.267Z,23.23
2022-12-03T09:34:52.550Z,22.25
2022-12-03T09:37:20.284Z,23.30
2022-12-03T09:39:47.801Z,23.98
2022-12-03T09:42:15.899Z,23.67
2022-12-03T09:44:44.240Z,21.40
2022-12-03T09:47:12.585Z,21.85
2022-12-03T09:49:40.984Z,22.42
2022-12-03T09:52:10.884Z,18.40
2022-12-03T09:54:51.976Z,20.88
2022-12-03T09:57:20.135Z,20.23
2022-12-03T09:59:48.330Z,19.38
2022-12-03T10:02:23.010Z,21.70
2022-12-03T10:04:50.963Z,18.25
2022-12-03T10:07:18.527Z,18.55
2022-12-03T10:09:46.330Z,22.38
2022-12-03T10:12:15.539Z,18.67
2022-12-03T10:14:43.608Z,20.67
2022-12-03T10:17:12.729Z,19.33
2022-12-03T10:19:40.695Z,18.10
2022-12-03T10:22:08.162Z,19.63
2022-12-03T10:24:37.316Z,21.13
2022-12-03T10:27:25.510Z,23.60
2022-12-03T10:29:58.415Z,22.95
2022-12-03T10:32:44.814Z,20.27
2022-12-03T10:35:41.471Z,19.45
2022-12-03T10:38:20.886Z,22.38
2022-12-03T10:40:48.848Z,25.38
2022-12-03T10:43:24.759Z,21.00
2022-12-03T10:46:05.022Z,17.25
2022-12-03T10:48:33.177Z,20.98
2022-12-03T10:51:14.422Z,22.73
2022-12-03T10:53:42.392Z,23.40
2022-12-03T10:56:22.934Z,19.33
2022-12-03T10:58:50.352Z,21.55
2022-12-03T11:01:20.584Z,18.95
2022-12-03T11:03:48.814Z,22.38
2022-12-03T11:06:19.877Z,26.00
2022-12-03T11:08:56.324Z,21.67
2022-12-03T11:11:29.429Z,17.42
2022-12-03T11:14:01.176Z,17.98
2022-12-03T11:16:52.587Z,16.23
2022-12-03T11:19:44.562Z,16.63
2022-12-03T11:22:12.049Z,18.98
2022-12-03T11:24:41.455Z,19.23
2022-12-03T11:27:19.608Z,16.70
2022-12-03T11:29:57.272Z,16.42
2022-12-03T11:32:40.196Z,15.13
2022-12-03T11:35:27.758Z,16.60
2022-12-03T11:37:55.137Z,16.38
2022-12-03T11:40:22.312Z,16.95
2022-12-03T11:42:50.162Z,14.50
2022-12-03T11:45:31.480Z,16.55
2022-12-03T11:47:58.818Z,14.48
2022-12-03T11:50:39.606Z,18.35
2022-12-03T11:53:18.376Z,15.50
2022-12-03T11:55:52.909Z,18.58
2022-12-03T11:58:26.997Z,18.98
2022-12-03T12:00:57.547Z,18.60
2022-12-03T12:03:36.190Z,16.08
2022-12-03T12:06:07.732Z,16.23
2022-12-03T12:08:38.194Z,17.52
2022-12-03T12:11:17.945Z,17.75
2022-12-03T12:13:45.153Z,15.63
2022-12-03T12:16:12.712Z,16.98
2022-12-03T12:18:43.389Z,18.88
2022-12-03T12:21:42.974Z,17.63
2022-12-03T12:24:40.918Z,23.25
2022-12-03T12:27:14.032Z,18.95
2022-12-03T12:29:43.274Z,19.02
2022-12-03T12:32:13.517Z,19.13
2022-12-03T12:34:46.285Z,20.23
2022-12-03T12:37:24.130Z,18.45
2022-12-03T12:39:57.445Z,20.98
2022-12-03T12:42:41.646Z,19.45
2022-12-03T12:45:17.866Z,18.92
2022-12-03T12:48:17.187Z,18.45
2022-12-03T12:50:50.527Z,19.58
2022-12-03T12:56:03.914Z,16.95
2022-12-03T12:58:34.934Z,17.10
2022-12-03T13:01:08.419Z,18.73
2022-12-03T13:03:41.453Z,20.00
2022-12-03T13:06:16.287Z,18.75
2022-12-03T13:08:48.992Z,18.20
2022-12-03T13:11:39.061Z,22.17
2022-12-03T13:14:13.977Z,22.10
2022-12-03T13:16:46.297Z,19.58
2022-12-03T13:19:24.342Z,19.02
2022-12-03T13:21:54.943Z,17.48
2022-12-03T13:24:45.917Z,19.83
2022-12-03T13:27:25.016Z,20.95
2022-12-03T13:30:14.754Z,18.55
2022-12-03T13:32:44.336Z,19.98
2022-12-03T13:35:32.525Z,19.25
2022-12-03T13:38:01.958Z,19.73
2022-12-03T13:40:31.671Z,19.95
2022-12-03T13:43:11.312Z,18.30
2022-12-03T13:45:40.826Z,19.40
2022-12-03T13:48:19.111Z,15.85
2022-12-03T13:50:56.720Z,17.48
2022-12-03T13:53:40.035Z,17.63
2022-12-03T13:56:44.285Z,15.95
2022-12-03T14:01:42.048Z,14.57
2022-12-03T14:04:10.450Z,15.60
2022-12-03T14:06:42.403Z,17.13
2022-12-03T14:09:25.720Z,13.88
2022-12-03T14:12:11.580Z,16.88
2022-12-03T14:14:41.809Z,16.35
2022-12-03T14:17:14.982Z,17.02
2022-12-03T14:19:49.322Z,14.55
2022-12-03T14:22:19.948Z,14.45
2022-12-03T14:24:57.840Z,16.73
2022-12-03T14:27:30.597Z,16.10
2022-12-03T14:30:10.045Z,11.27
2022-12-03T14:32:41.230Z,14.23
2022-12-03T14:35:16.214Z,13.63
2022-12-03T14:37:45.617Z,14.98
2022-12-03T14:40:21.616Z,14.50
2022-12-03T14:42:53.973Z,13.65
2022-12-03T14:45:21.326Z,14.00
2022-12-03T14:47:57.879Z,12.63
2022-12-03T14:50:34.766Z,12.45
2022-12-03T14:53:02.262Z,13.15
2022-12-03T14:55:30.116Z,13.20
2022-12-03T14:57:57.516Z,13.23
2022-12-03T15:00:25.607Z,12.05
2022-12-03T15:02:53.177Z,12.43
2022-12-03T15:05:27.966Z,12.48
2022-12-03T15:07:56.786Z,16.45
2022-12-03T15:10:24.302Z,13.82
2022-12-03T15:12:51.678Z,12.57
2022-12-03T15:15:19.269Z,11.88
2022-12-03T15:17:50.307Z,11.70
2022-12-03T15:20:19.432Z,11.57
2022-12-03T15:22:46.914Z,12.07
2022-12-03T15:25:14.670Z,11.70
2022-12-03T15:27:42.138Z,15.65
2022-12-03T15:30:10.667Z,12.30
2022-12-03T15:32:40.761Z,13.18
2022-12-03T15:35:08.897Z,13.25
2022-12-03T15:37:36.508Z,10.57
2022-12-03T15:40:04.562Z,10.98
2022-12-03T15:42:32.637Z,10.05
2022-12-03T15:45:00.383Z,10.75
2022-12-03T15:47:28.108Z,9.70
2022-12-03T15:49:56.079Z,13.02
2022-12-03T15:52:26.784Z,11.48
2022-12-03T15:55:00.217Z,12.50
2022-12-03T15:59:56.284Z,11.35
2022-12-03T16:02:24.640Z,11.07
2022-12-03T16:04:52.833Z,13.98
2022-12-03T16:07:20.406Z,12.82
2022-12-03T16:09:48.048Z,12.60
2022-12-03T16:12:18.175Z,13.55
2022-12-03T16:14:46.400Z,9.77
2022-12-03T16:17:13.808Z,11.93
2022-12-03T16:19:42.011Z,13.43
2022-12-03T16:22:09.975Z,11.50
2022-12-03T16:24:38.119Z,11.18
2022-12-03T16:27:05.885Z,11.00
2022-12-03T16:29:34.006Z,12.23
2022-12-03T16:32:01.544Z,13.48
2022-12-03T16:34:29.107Z,11.63
2022-12-03T16:36:59.938Z,14.05
2022-12-03T16:39:29.756Z,18.02
2022-12-03T16:41:57.679Z,26.75
2022-12-03T16:44:47.193Z,48.67
2022-12-03T16:47:18.199Z,46.38
2022-12-03T16:49:49.601Z,36.13
2022-12-03T16:52:17.273Z,26.80
2022-12-03T16:54:44.567Z,26.05
2022-12-03T16:57:12.616Z,21.45
2022-12-03T16:59:41.258Z,19.42
2022-12-03T17:02:13.126Z,15.68
2022-12-03T17:04:41.191Z,16.58
2022-12-03T17:07:08.382Z,14.07
2022-12-03T17:09:35.961Z,13.75
2022-12-03T17:12:06.962Z,15.05
2022-12-03T17:14:34.801Z,15.05
2022-12-03T17:17:02.876Z,17.80
2022-12-03T17:19:33.136Z,15.82
2022-12-03T17:22:01.076Z,15.27
2022-12-03T17:24:28.518Z,18.45
2022-12-03T17:26:56.124Z,21.90
2022-12-03T17:29:25.142Z,24.35
2022-12-03T17:31:52.753Z,29.23
2022-12-03T17:34:20.692Z,41.55
2022-12-03T17:36:48.084Z,34.67
2022-12-03T17:39:16.781Z,32.58
2022-12-03T17:41:44.381Z,26.23
2022-12-03T17:44:17.771Z,16.67
2022-12-03T17:46:54.524Z,18.08
2022-12-03T17:49:31.132Z,15.50
2022-12-03T17:51:59.449Z,17.50
2022-12-03T17:54:43.199Z,16.42
2022-12-03T17:57:17.774Z,17.55
2022-12-03T17:59:45.410Z,16.20
2022-12-03T18:02:12.669Z,18.65
2022-12-03T18:04:40.592Z,17.90
2022-12-03T18:07:09.764Z,15.43
2022-12-03T18:09:37.029Z,16.58
2022-12-03T18:12:05.003Z,18.38
2022-12-03T18:14:35.885Z,21.40
2022-12-03T18:17:07.433Z,14.75
2022-12-03T18:19:35.676Z,16.73
2022-12-03T18:22:06.683Z,15.48
2022-12-03T18:24:41.384Z,16.77
2022-12-03T18:27:09.226Z,15.43
2022-12-03T18:29:37.268Z,18.23
2022-12-03T18:32:27.798Z,18.23
2022-12-03T18:34:56.715Z,15.13
2022-12-03T18:37:28.015Z,15.88
2022-12-03T18:39:58.330Z,17.67
2022-12-03T18:42:26.099Z,15.95
2022-12-03T18:44:55.453Z,15.80
2022-12-03T18:47:32.333Z,20.27
2022-12-03T18:49:59.944Z,16.50
2022-12-03T18:52:30.844Z,20.65
2022-12-03T18:54:58.633Z,20.63
2022-12-03T18:57:26.576Z,18.52
2022-12-03T18:59:54.476Z,18.85
2022-12-03T19:05:10.060Z,20.75
2022-12-03T19:07:38.582Z,22.90
2022-12-03T19:10:06.675Z,22.10
2022-12-03T19:12:34.346Z,21.40
2022-12-03T19:15:05.800Z,24.88
2022-12-03T19:17:33.705Z,25.95
2022-12-03T19:20:01.268Z,44.78
2022-12-03T19:22:29.133Z,46.80
2022-12-03T19:24:56.459Z,53.75
2022-12-03T19:27:23.772Z,40.08
2022-12-03T19:29:51.374Z,31.50
2022-12-03T19:32:19.244Z,26.92
2022-12-03T19:34:46.806Z,24.95
2022-12-03T19:37:14.402Z,23.42
2022-12-03T19:39:45.101Z,24.88
2022-12-03T19:42:15.548Z,27.15
2022-12-03T19:44:43.134Z,25.30
2022-12-03T19:47:10.502Z,24.80
2022-12-03T19:49:39.530Z,23.40
2022-12-03T19:52:08.591Z,24.65
2022-12-03T19:54:38.096Z,22.70
2022-12-03T19:57:06.674Z,21.98
2022-12-03T19:59:35.715Z,23.40
2022-12-03T20:02:04.342Z,24.52
2022-12-03T20:04:32.191Z,21.63
2022-12-03T20:06:59.737Z,23.33
2022-12-03T20:09:27.323Z,23.73
2022-12-03T20:11:56.463Z,22.70
2022-12-03T20:14:24.319Z,26.33
2022-12-03T20:16:52.643Z,31.40
2022-12-03T20:19:25.886Z,60.03
2022-12-03T20:21:59.005Z,77.63
2022-12-03T20:24:31.242Z,74.80
2022-12-03T20:26:59.023Z,68.90
2022-12-03T20:29:27.269Z,65.68
2022-12-03T20:31:55.244Z,45.28
2022-12-03T20:34:22.615Z,30.02
2022-12-03T20:36:50.140Z,34.30
2022-12-03T20:39:17.431Z,32.55
2022-12-03T20:41:44.675Z,31.48
2022-12-03T20:44:14.714Z,31.92
2022-12-03T20:46:43.371Z,55.53
2022-12-03T20:49:10.767Z,74.93
2022-12-03T20:51:38.211Z,158.82
2022-12-03T20:54:05.778Z,188.55
2022-12-03T20:56:35.972Z,170.98
2022-12-03T20:59:13.014Z,84.35
2022-12-03T21:01:41.627Z,43.05
2022-12-03T21:04:11.012Z,37.97
2022-12-03T21:06:42.665Z,30.23
2022-12-03T21:09:12.099Z,30.38
2022-12-03T21:11:42.693Z,43.70
2022-12-03T21:14:11.645Z,51.58
2022-12-03T21:17:07.177Z,38.85
2022-12-03T21:19:31.119Z,34.70
2022-12-03T21:21:58.591Z,31.27
2022-12-03T21:24:26.425Z,34.88
2022-12-03T21:26:54.663Z,31.73
2022-12-03T21:29:23.000Z,30.95
2022-12-03T21:31:50.561Z,43.03
2022-12-03T21:34:18.314Z,45.13
2022-12-03T21:36:45.898Z,43.30
2022-12-03T21:39:13.788Z,43.85
2022-12-03T21:41:41.402Z,51.53
2022-12-03T21:44:28.836Z,45.78
2022-12-03T21:47:10.001Z,39.08
2022-12-03T21:49:40.488Z,44.17
2022-12-03T21:52:11.291Z,48.28
2022-12-03T21:54:39.069Z,43.03
2022-12-03T21:57:06.667Z,39.63
2022-12-03T21:59:33.896Z,34.85
2022-12-03T22:02:01.574Z,38.40
2022-12-03T22:04:28.913Z,41.40
2022-12-03T22:06:56.477Z,39.72
2022-12-03T22:09:26.777Z,36.58
2022-12-03T22:11:57.474Z,34.72
2022-12-03T22:14:25.463Z,35.58
2022-12-03T22:16:52.976Z,32.92
2022-12-03T22:19:24.224Z,39.90
2022-12-03T22:21:52.217Z,41.90
2022-12-03T22:24:19.850Z,39.55
2022-12-03T22:26:47.754Z,40.17
2022-12-03T22:29:15.593Z,36.08
2022-12-03T22:31:44.254Z,37.55
2022-12-03T22:34:11.764Z,40.13
2022-12-03T22:36:39.586Z,36.03
2022-12-03T22:39:07.316Z,44.15
2022-12-03T22:41:34.521Z,43.55
2022-12-03T22:44:02.287Z,43.63
2022-12-03T22:46:29.638Z,40.63
2022-12-03T22:48:59.441Z,42.67
2022-12-03T22:51:31.435Z,39.78
2022-12-03T22:54:00.082Z,37.17
2022-12-03T22:56:28.765Z,37.53
2022-12-03T22:58:56.372Z,34.35
2022-12-03T23:01:35.295Z,35.53
2022-12-03T23:04:03.103Z,32.10
2022-12-03T23:06:31.605Z,33.40
2022-12-03T23:08:59.183Z,33.22
2022-12-03T23:11:26.629Z,34.45
2022-12-03T23:13:54.929Z,38.53
2022-12-03T23:16:26.544Z,32.85
2022-12-03T23:18:54.467Z,35.30
2022-12-03T23:21:29.708Z,32.75
2022-12-03T23:24:01.315Z,35.63
2022-12-03T23:26:29.595Z,31.83
2022-12-03T23:28:57.326Z,39.00
2022-12-03T23:31:30.382Z,36.78
2022-12-03T23:33:59.709Z,35.63
2022-12-03T23:36:32.844Z,37.00
2022-12-03T23:39:00.652Z,34.83
2022-12-03T23:41:28.111Z,32.75
2022-12-03T23:43:56.467Z,33.63
2022-12-03T23:46:26.707Z,32.50
2022-12-03T23:48:54.193Z,33.20
2022-12-03T23:51:24.607Z,32.90
2022-12-03T23:53:53.608Z,29.73
2022-12-03T23:56:24.577Z,30.40
2022-12-03T23:58:53.075Z,26.85
